sensor_id;sensor_type;location;lat;lon;timestamp;temperature;humidity
50586;DHT22;36542;51.700;8.846;2023-08-31T00:02:19;11.30;99.90
50586;DHT22;36542;51.700;8.846;2023-08-31T00:04:45;11.30;99.90
50586;DHT22;36542;51.700;8.846;2023-08-31T00:07:11;11.40;99.90
50586;DHT22;36542;51.700;8.846;2023-08-31T00:09:39;11.50;99.90
50586;DHT22;36542;51.700;8.846;2023-08-31T00:12:07;11.50;99.90
50586;DHT22;36542;51.700;8.846;2023-08-31T00:14:37;11.60;99.90
50586;DHT22;36542;51.700;8.846;2023-08-31T00:17:29;11.60;99.90
50586;DHT22;36542;51.700;8.846;2023-08-31T00:19:54;11.60;99.90
50586;DHT22;36542;51.700;8.846;2023-08-31T00:22:20;11.60;99.90
50586;DHT22;36542;51.700;8.846;2023-08-31T00:24:48;11.50;99.90
50586;DHT22;36542;51.700;8.846;2023-08-31T00:27:18;11.50;99.90
50586;DHT22;36542;51.700;8.846;2023-08-31T00:29:46;11.50;99.90
50586;DHT22;36542;51.700;8.846;2023-08-31T00:32:18;11.50;99.90
50586;DHT22;36542;51.700;8.846;2023-08-31T00:34:44;11.40;99.90
50586;DHT22;36542;51.700;8.846;2023-08-31T00:37:12;11.50;99.90
50586;DHT22;36542;51.700;8.846;2023-08-31T00:39:37;11.40;99.90
50586;DHT22;36542;51.700;8.846;2023-08-31T00:42:03;11.40;99.90
50586;DHT22;36542;51.700;8.846;2023-08-31T00:44:29;11.30;99.90
50586;DHT22;36542;51.700;8.846;2023-08-31T00:46:54;11.30;99.90
50586;DHT22;36542;51.700;8.846;2023-08-31T00:49:20;11.30;99.90
50586;DHT22;36542;51.700;8.846;2023-08-31T00:51:46;11.20;99.90
50586;DHT22;36542;51.700;8.846;2023-08-31T00:54:21;11.20;99.90
50586;DHT22;36542;51.700;8.846;2023-08-31T00:59:29;11.20;99.90
50586;DHT22;36542;51.700;8.846;2023-08-31T01:02:13;11.20;99.90
50586;DHT22;36542;51.700;8.846;2023-08-31T01:04:45;11.20;99.90
50586;DHT22;36542;51.700;8.846;2023-08-31T01:07:25;11.20;99.90
50586;DHT22;36542;51.700;8.846;2023-08-31T01:10:16;11.10;99.90
50586;DHT22;36542;51.700;8.846;2023-08-31T01:12:59;11.10;99.90
50586;DHT22;36542;51.700;8.846;2023-08-31T01:15:30;11.10;99.90
50586;DHT22;36542;51.700;8.846;2023-08-31T01:17:58;11.00;99.90
50586;DHT22;36542;51.700;8.846;2023-08-31T01:20:34;11.00;99.90
50586;DHT22;36542;51.700;8.846;2023-08-31T01:23:10;10.90;99.90
50586;DHT22;36542;51.700;8.846;2023-08-31T01:25:39;10.90;99.90
50586;DHT22;36542;51.700;8.846;2023-08-31T01:28:10;10.90;99.90
50586;DHT22;36542;51.700;8.846;2023-08-31T01:30:38;10.80;99.90
50586;DHT22;36542;51.700;8.846;2023-08-31T01:33:03;10.80;99.90
50586;DHT22;36542;51.700;8.846;2023-08-31T01:35:34;10.80;99.90
50586;DHT22;36542;51.700;8.846;2023-08-31T01:38:03;10.80;99.90
50586;DHT22;36542;51.700;8.846;2023-08-31T01:43:06;10.70;99.90
50586;DHT22;36542;51.700;8.846;2023-08-31T01:45:33;10.70;99.90
50586;DHT22;36542;51.700;8.846;2023-08-31T01:48:01;10.70;99.90
50586;DHT22;36542;51.700;8.846;2023-08-31T01:50:26;10.60;99.90
50586;DHT22;36542;51.700;8.846;2023-08-31T01:52:54;10.60;99.90
50586;DHT22;36542;51.700;8.846;2023-08-31T01:55:21;10.60;99.90
50586;DHT22;36542;51.700;8.846;2023-08-31T01:57:50;10.70;99.90
50586;DHT22;36542;51.700;8.846;2023-08-31T02:00:19;10.70;99.90
50586;DHT22;36542;51.700;8.846;2023-08-31T02:02:45;10.80;99.90
50586;DHT22;36542;51.700;8.846;2023-08-31T02:05:10;10.80;99.90
50586;DHT22;36542;51.700;8.846;2023-08-31T02:07:36;10.90;99.90
50586;DHT22;36542;51.700;8.846;2023-08-31T02:10:02;10.90;99.90
50586;DHT22;36542;51.700;8.846;2023-08-31T02:12:33;10.90;99.90
50586;DHT22;36542;51.700;8.846;2023-08-31T02:15:01;11.00;99.90
50586;DHT22;36542;51.700;8.846;2023-08-31T02:17:38;11.00;99.90
50586;DHT22;36542;51.700;8.846;2023-08-31T02:20:04;11.10;99.90
50586;DHT22;36542;51.700;8.846;2023-08-31T02:22:33;11.10;99.90
50586;DHT22;36542;51.700;8.846;2023-08-31T02:25:02;11.10;99.90
50586;DHT22;36542;51.700;8.846;2023-08-31T02:27:28;11.10;99.90
50586;DHT22;36542;51.700;8.846;2023-08-31T02:29:53;11.10;99.90
50586;DHT22;36542;51.700;8.846;2023-08-31T02:32:19;11.20;99.90
50586;DHT22;36542;51.700;8.846;2023-08-31T02:34:44;11.20;99.90
50586;DHT22;36542;51.700;8.846;2023-08-31T02:37:12;11.20;99.90
50586;DHT22;36542;51.700;8.846;2023-08-31T02:39:40;11.30;99.90
50586;DHT22;36542;51.700;8.846;2023-08-31T02:42:06;11.30;99.90
50586;DHT22;36542;51.700;8.846;2023-08-31T02:44:34;11.40;99.90
50586;DHT22;36542;51.700;8.846;2023-08-31T02:47:00;11.40;99.90
50586;DHT22;36542;51.700;8.846;2023-08-31T02:49:25;11.40;99.90
50586;DHT22;36542;51.700;8.846;2023-08-31T02:51:51;11.50;99.90
50586;DHT22;36542;51.700;8.846;2023-08-31T02:54:16;11.40;99.90
50586;DHT22;36542;51.700;8.846;2023-08-31T02:56:42;11.40;99.90
50586;DHT22;36542;51.700;8.846;2023-08-31T02:59:07;11.40;99.90
50586;DHT22;36542;51.700;8.846;2023-08-31T03:01:33;11.40;99.90
50586;DHT22;36542;51.700;8.846;2023-08-31T03:03:58;11.40;99.90
50586;DHT22;36542;51.700;8.846;2023-08-31T03:06:25;11.30;99.90
50586;DHT22;36542;51.700;8.846;2023-08-31T03:08:51;11.30;99.90
50586;DHT22;36542;51.700;8.846;2023-08-31T03:11:16;11.30;99.90
50586;DHT22;36542;51.700;8.846;2023-08-31T03:13:42;11.20;99.90
50586;DHT22;36542;51.700;8.846;2023-08-31T03:16:07;11.20;99.90
50586;DHT22;36542;51.700;8.846;2023-08-31T03:18:33;11.20;99.90
50586;DHT22;36542;51.700;8.846;2023-08-31T03:20:58;11.10;99.90
50586;DHT22;36542;51.700;8.846;2023-08-31T03:23:25;11.10;99.90
50586;DHT22;36542;51.700;8.846;2023-08-31T03:25:50;11.10;99.90
50586;DHT22;36542;51.700;8.846;2023-08-31T03:28:16;11.10;99.90
50586;DHT22;36542;51.700;8.846;2023-08-31T03:30:41;11.10;99.90
50586;DHT22;36542;51.700;8.846;2023-08-31T03:33:10;11.10;99.90
50586;DHT22;36542;51.700;8.846;2023-08-31T03:35:36;11.10;99.90
50586;DHT22;36542;51.700;8.846;2023-08-31T03:38:01;11.00;99.90
50586;DHT22;36542;51.700;8.846;2023-08-31T03:40:27;11.10;99.90
50586;DHT22;36542;51.700;8.846;2023-08-31T03:42:52;11.00;99.90
50586;DHT22;36542;51.700;8.846;2023-08-31T03:45:19;11.00;99.90
50586;DHT22;36542;51.700;8.846;2023-08-31T03:47:45;11.00;99.90
50586;DHT22;36542;51.700;8.846;2023-08-31T03:50:10;11.00;99.90
50586;DHT22;36542;51.700;8.846;2023-08-31T03:52:36;10.90;99.90
50586;DHT22;36542;51.700;8.846;2023-08-31T03:55:02;11.00;99.90
50586;DHT22;36542;51.700;8.846;2023-08-31T03:57:27;11.00;99.90
50586;DHT22;36542;51.700;8.846;2023-08-31T03:59:53;11.00;99.90
50586;DHT22;36542;51.700;8.846;2023-08-31T04:02:18;10.90;99.90
50586;DHT22;36542;51.700;8.846;2023-08-31T04:04:44;10.90;99.90
50586;DHT22;36542;51.700;8.846;2023-08-31T04:07:09;10.90;99.90
50586;DHT22;36542;51.700;8.846;2023-08-31T04:09:35;10.80;99.90
50586;DHT22;36542;51.700;8.846;2023-08-31T04:12:00;10.80;99.90
50586;DHT22;36542;51.700;8.846;2023-08-31T04:14:26;10.80;99.90
50586;DHT22;36542;51.700;8.846;2023-08-31T04:16:53;10.80;99.90
50586;DHT22;36542;51.700;8.846;2023-08-31T04:19:18;10.80;99.90
50586;DHT22;36542;51.700;8.846;2023-08-31T04:21:44;10.80;99.90
50586;DHT22;36542;51.700;8.846;2023-08-31T04:24:09;10.70;99.90
50586;DHT22;36542;51.700;8.846;2023-08-31T04:26:35;10.70;99.90
50586;DHT22;36542;51.700;8.846;2023-08-31T04:29:03;10.60;99.90
50586;DHT22;36542;51.700;8.846;2023-08-31T04:31:33;10.60;99.90
50586;DHT22;36542;51.700;8.846;2023-08-31T04:33:59;10.50;99.90
50586;DHT22;36542;51.700;8.846;2023-08-31T04:36:24;10.50;99.90
50586;DHT22;36542;51.700;8.846;2023-08-31T04:38:53;10.60;99.90
50586;DHT22;36542;51.700;8.846;2023-08-31T04:41:18;10.70;99.90
50586;DHT22;36542;51.700;8.846;2023-08-31T04:43:44;10.80;99.90
50586;DHT22;36542;51.700;8.846;2023-08-31T04:46:13;10.80;99.90
50586;DHT22;36542;51.700;8.846;2023-08-31T04:48:38;10.90;99.90
50586;DHT22;36542;51.700;8.846;2023-08-31T04:51:05;10.90;99.90
50586;DHT22;36542;51.700;8.846;2023-08-31T04:53:31;11.00;99.90
50586;DHT22;36542;51.700;8.846;2023-08-31T04:55:56;11.00;99.90
50586;DHT22;36542;51.700;8.846;2023-08-31T04:58:22;11.00;99.90
50586;DHT22;36542;51.700;8.846;2023-08-31T05:00:48;11.10;99.90
50586;DHT22;36542;51.700;8.846;2023-08-31T05:03:14;11.10;99.90
50586;DHT22;36542;51.700;8.846;2023-08-31T05:05:39;11.10;99.90
50586;DHT22;36542;51.700;8.846;2023-08-31T05:08:08;11.10;99.90
50586;DHT22;36542;51.700;8.846;2023-08-31T05:10:34;11.10;99.90
50586;DHT22;36542;51.700;8.846;2023-08-31T05:12:59;11.10;99.90
50586;DHT22;36542;51.700;8.846;2023-08-31T05:15:25;11.10;99.90
50586;DHT22;36542;51.700;8.846;2023-08-31T05:17:53;11.10;99.90
50586;DHT22;36542;51.700;8.846;2023-08-31T05:20:18;11.10;99.90
50586;DHT22;36542;51.700;8.846;2023-08-31T05:22:44;11.10;99.90
50586;DHT22;36542;51.700;8.846;2023-08-31T05:25:09;11.10;99.90
50586;DHT22;36542;51.700;8.846;2023-08-31T05:27:35;11.10;99.90
50586;DHT22;36542;51.700;8.846;2023-08-31T05:30:00;11.10;99.90
50586;DHT22;36542;51.700;8.846;2023-08-31T05:35:36;11.20;99.90
50586;DHT22;36542;51.700;8.846;2023-08-31T05:38:01;11.20;99.90
50586;DHT22;36542;51.700;8.846;2023-08-31T05:40:28;11.20;99.90
50586;DHT22;36542;51.700;8.846;2023-08-31T05:42:53;11.20;99.90
50586;DHT22;36542;51.700;8.846;2023-08-31T05:45:19;11.20;99.90
50586;DHT22;36542;51.700;8.846;2023-08-31T05:47:44;11.20;99.90
50586;DHT22;36542;51.700;8.846;2023-08-31T05:50:10;11.20;99.90
50586;DHT22;36542;51.700;8.846;2023-08-31T05:52:35;11.20;99.90
50586;DHT22;36542;51.700;8.846;2023-08-31T05:55:01;11.20;99.90
50586;DHT22;36542;51.700;8.846;2023-08-31T05:57:26;11.30;99.90
50586;DHT22;36542;51.700;8.846;2023-08-31T05:59:57;11.30;99.90
50586;DHT22;36542;51.700;8.846;2023-08-31T06:02:30;11.40;99.90
50586;DHT22;36542;51.700;8.846;2023-08-31T06:04:55;11.50;99.90
50586;DHT22;36542;51.700;8.846;2023-08-31T06:07:23;11.50;99.90
50586;DHT22;36542;51.700;8.846;2023-08-31T06:09:59;11.50;99.90
50586;DHT22;36542;51.700;8.846;2023-08-31T06:12:24;11.70;99.90
50586;DHT22;36542;51.700;8.846;2023-08-31T06:14:50;11.80;99.90
50586;DHT22;36542;51.700;8.846;2023-08-31T06:17:19;12.00;99.90
50586;DHT22;36542;51.700;8.846;2023-08-31T06:19:44;12.10;99.90
50586;DHT22;36542;51.700;8.846;2023-08-31T06:22:17;12.20;99.90
50586;DHT22;36542;51.700;8.846;2023-08-31T06:24:43;12.20;99.90
50586;DHT22;36542;51.700;8.846;2023-08-31T06:27:10;12.30;99.90
50586;DHT22;36542;51.700;8.846;2023-08-31T06:29:37;12.40;99.90
50586;DHT22;36542;51.700;8.846;2023-08-31T06:32:03;12.50;99.90
50586;DHT22;36542;51.700;8.846;2023-08-31T06:34:29;12.60;99.90
50586;DHT22;36542;51.700;8.846;2023-08-31T06:36:56;12.60;99.90
50586;DHT22;36542;51.700;8.846;2023-08-31T06:39:26;12.80;99.90
50586;DHT22;36542;51.700;8.846;2023-08-31T06:42:21;12.90;99.90
50586;DHT22;36542;51.700;8.846;2023-08-31T06:44:52;13.20;99.90
50586;DHT22;36542;51.700;8.846;2023-08-31T06:47:21;14.00;99.90
50586;DHT22;36542;51.700;8.846;2023-08-31T06:49:47;14.70;99.90
50586;DHT22;36542;51.700;8.846;2023-08-31T06:52:21;14.50;99.90
50586;DHT22;36542;51.700;8.846;2023-08-31T06:54:49;14.40;99.90
50586;DHT22;36542;51.700;8.846;2023-08-31T06:57:14;14.30;99.90
50586;DHT22;36542;51.700;8.846;2023-08-31T06:59:43;14.00;99.90
50586;DHT22;36542;51.700;8.846;2023-08-31T07:02:10;13.60;99.90
50586;DHT22;36542;51.700;8.846;2023-08-31T07:04:35;13.30;99.90
50586;DHT22;36542;51.700;8.846;2023-08-31T07:07:01;13.00;99.90
50586;DHT22;36542;51.700;8.846;2023-08-31T07:09:27;12.80;99.90
50586;DHT22;36542;51.700;8.846;2023-08-31T07:11:54;12.60;99.90
50586;DHT22;36542;51.700;8.846;2023-08-31T07:14:20;12.50;99.90
50586;DHT22;36542;51.700;8.846;2023-08-31T07:16:47;12.30;99.90
50586;DHT22;36542;51.700;8.846;2023-08-31T07:19:22;12.20;99.90
50586;DHT22;36542;51.700;8.846;2023-08-31T07:22:08;12.20;99.90
50586;DHT22;36542;51.700;8.846;2023-08-31T07:24:34;12.30;99.90
50586;DHT22;36542;51.700;8.846;2023-08-31T07:27:02;12.40;99.90
50586;DHT22;36542;51.700;8.846;2023-08-31T07:29:27;12.60;99.90
50586;DHT22;36542;51.700;8.846;2023-08-31T07:31:53;12.60;99.90
50586;DHT22;36542;51.700;8.846;2023-08-31T07:34:19;13.30;99.90
50586;DHT22;36542;51.700;8.846;2023-08-31T07:36:44;13.80;99.90
50586;DHT22;36542;51.700;8.846;2023-08-31T07:39:10;14.80;99.90
50586;DHT22;36542;51.700;8.846;2023-08-31T07:41:36;16.40;99.90
50586;DHT22;36542;51.700;8.846;2023-08-31T07:44:01;17.80;99.90
50586;DHT22;36542;51.700;8.846;2023-08-31T07:46:28;18.70;99.90
50586;DHT22;36542;51.700;8.846;2023-08-31T07:48:53;19.30;99.90
50586;DHT22;36542;51.700;8.846;2023-08-31T07:51:19;19.70;99.90
50586;DHT22;36542;51.700;8.846;2023-08-31T07:53:49;20.20;99.90
50586;DHT22;36542;51.700;8.846;2023-08-31T07:56:14;20.40;99.90
50586;DHT22;36542;51.700;8.846;2023-08-31T07:58:40;20.40;99.90
50586;DHT22;36542;51.700;8.846;2023-08-31T08:01:05;20.80;99.90
50586;DHT22;36542;51.700;8.846;2023-08-31T08:03:31;20.60;99.90
50586;DHT22;36542;51.700;8.846;2023-08-31T08:05:56;21.20;99.90
50586;DHT22;36542;51.700;8.846;2023-08-31T08:08:22;21.70;99.90
50586;DHT22;36542;51.700;8.846;2023-08-31T08:10:52;22.10;99.90
50586;DHT22;36542;51.700;8.846;2023-08-31T08:13:17;21.80;99.90
50586;DHT22;36542;51.700;8.846;2023-08-31T08:15:43;21.80;99.90
50586;DHT22;36542;51.700;8.846;2023-08-31T08:18:10;22.20;99.90
50586;DHT22;36542;51.700;8.846;2023-08-31T08:20:35;22.10;99.90
50586;DHT22;36542;51.700;8.846;2023-08-31T08:23:01;21.80;99.90
50586;DHT22;36542;51.700;8.846;2023-08-31T08:25:26;21.00;99.90
50586;DHT22;36542;51.700;8.846;2023-08-31T08:27:52;19.70;99.90
50586;DHT22;36542;51.700;8.846;2023-08-31T08:30:17;18.90;99.90
50586;DHT22;36542;51.700;8.846;2023-08-31T08:32:44;17.90;99.90
50586;DHT22;36542;51.700;8.846;2023-08-31T08:35:09;16.70;99.90
50586;DHT22;36542;51.700;8.846;2023-08-31T08:37:35;16.00;99.90
50586;DHT22;36542;51.700;8.846;2023-08-31T08:40:01;15.30;99.90
50586;DHT22;36542;51.700;8.846;2023-08-31T08:42:29;14.70;99.90
50586;DHT22;36542;51.700;8.846;2023-08-31T08:44:57;14.70;99.90
50586;DHT22;36542;51.700;8.846;2023-08-31T08:47:24;14.50;99.90
50586;DHT22;36542;51.700;8.846;2023-08-31T08:49:50;14.50;99.90
50586;DHT22;36542;51.700;8.846;2023-08-31T08:52:17;14.50;99.90
50586;DHT22;36542;51.700;8.846;2023-08-31T08:54:44;15.00;99.90
50586;DHT22;36542;51.700;8.846;2023-08-31T08:57:10;15.40;99.90
50586;DHT22;36542;51.700;8.846;2023-08-31T08:59:36;15.70;99.90
50586;DHT22;36542;51.700;8.846;2023-08-31T09:04:55;16.90;99.90
50586;DHT22;36542;51.700;8.846;2023-08-31T09:07:33;18.00;99.90
50586;DHT22;36542;51.700;8.846;2023-08-31T09:10:07;19.30;99.90
50586;DHT22;36542;51.700;8.846;2023-08-31T09:12:36;20.50;99.90
50586;DHT22;36542;51.700;8.846;2023-08-31T09:15:03;21.30;99.90
50586;DHT22;36542;51.700;8.846;2023-08-31T09:17:42;20.80;99.90
50586;DHT22;36542;51.700;8.846;2023-08-31T09:20:10;20.60;99.90
50586;DHT22;36542;51.700;8.846;2023-08-31T09:22:39;19.60;99.90
50586;DHT22;36542;51.700;8.846;2023-08-31T09:25:10;18.20;99.90
50586;DHT22;36542;51.700;8.846;2023-08-31T09:27:38;17.50;99.90
50586;DHT22;36542;51.700;8.846;2023-08-31T09:30:06;16.80;99.90
50586;DHT22;36542;51.700;8.846;2023-08-31T09:32:32;16.10;99.90
50586;DHT22;36542;51.700;8.846;2023-08-31T09:34:57;15.80;99.90
50586;DHT22;36542;51.700;8.846;2023-08-31T09:37:28;15.40;99.90
50586;DHT22;36542;51.700;8.846;2023-08-31T09:39:53;14.90;99.90
50586;DHT22;36542;51.700;8.846;2023-08-31T09:42:19;14.50;99.90
50586;DHT22;36542;51.700;8.846;2023-08-31T09:44:49;13.90;99.90
50586;DHT22;36542;51.700;8.846;2023-08-31T09:47:15;13.30;99.90
50586;DHT22;36542;51.700;8.846;2023-08-31T09:49:42;13.10;99.90
50586;DHT22;36542;51.700;8.846;2023-08-31T09:52:09;13.10;99.90
50586;DHT22;36542;51.700;8.846;2023-08-31T09:54:35;13.20;99.90
50586;DHT22;36542;51.700;8.846;2023-08-31T09:57:02;13.50;99.90
50586;DHT22;36542;51.700;8.846;2023-08-31T09:59:28;13.90;99.90
50586;DHT22;36542;51.700;8.846;2023-08-31T10:01:54;14.80;99.90
50586;DHT22;36542;51.700;8.846;2023-08-31T10:04:22;15.60;99.90
50586;DHT22;36542;51.700;8.846;2023-08-31T10:06:49;16.10;99.90
50586;DHT22;36542;51.700;8.846;2023-08-31T10:09:14;15.80;99.90
50586;DHT22;36542;51.700;8.846;2023-08-31T10:11:41;15.90;99.90
50586;DHT22;36542;51.700;8.846;2023-08-31T10:14:09;15.90;99.90
50586;DHT22;36542;51.700;8.846;2023-08-31T10:16:37;16.00;99.90
50586;DHT22;36542;51.700;8.846;2023-08-31T10:19:04;16.20;99.90
50586;DHT22;36542;51.700;8.846;2023-08-31T10:21:30;16.40;99.90
50586;DHT22;36542;51.700;8.846;2023-08-31T10:23:55;16.60;99.90
50586;DHT22;36542;51.700;8.846;2023-08-31T10:26:31;17.00;99.90
50586;DHT22;36542;51.700;8.846;2023-08-31T10:28:58;16.90;99.90
50586;DHT22;36542;51.700;8.846;2023-08-31T10:31:24;16.60;99.90
50586;DHT22;36542;51.700;8.846;2023-08-31T10:34:01;17.00;99.90
50586;DHT22;36542;51.700;8.846;2023-08-31T10:36:40;17.70;99.90
50586;DHT22;36542;51.700;8.846;2023-08-31T10:39:14;17.90;99.90
50586;DHT22;36542;51.700;8.846;2023-08-31T10:41:41;18.10;99.90
50586;DHT22;36542;51.700;8.846;2023-08-31T10:44:27;18.40;99.90
50586;DHT22;36542;51.700;8.846;2023-08-31T10:46:54;18.10;99.90
50586;DHT22;36542;51.700;8.846;2023-08-31T10:49:23;18.00;99.90
50586;DHT22;36542;51.700;8.846;2023-08-31T10:51:54;18.10;99.90
50586;DHT22;36542;51.700;8.846;2023-08-31T10:54:23;18.10;99.90
50586;DHT22;36542;51.700;8.846;2023-08-31T10:56:54;18.70;99.90
50586;DHT22;36542;51.700;8.846;2023-08-31T10:59:20;18.60;99.90
50586;DHT22;36542;51.700;8.846;2023-08-31T11:01:59;18.50;99.90
50586;DHT22;36542;51.700;8.846;2023-08-31T11:04:27;18.60;99.90
50586;DHT22;36542;51.700;8.846;2023-08-31T11:07:12;17.80;99.90
50586;DHT22;36542;51.700;8.846;2023-08-31T11:09:39;17.80;99.90
50586;DHT22;36542;51.700;8.846;2023-08-31T11:12:05;17.40;99.90
50586;DHT22;36542;51.700;8.846;2023-08-31T11:14:30;17.00;99.90
50586;DHT22;36542;51.700;8.846;2023-08-31T11:16:56;17.00;99.90
50586;DHT22;36542;51.700;8.846;2023-08-31T11:19:22;17.20;99.90
50586;DHT22;36542;51.700;8.846;2023-08-31T11:21:48;17.60;99.90
50586;DHT22;36542;51.700;8.846;2023-08-31T11:24:14;18.00;99.90
50586;DHT22;36542;51.700;8.846;2023-08-31T11:26:41;18.10;99.90
50586;DHT22;36542;51.700;8.846;2023-08-31T11:29:07;18.30;99.90
50586;DHT22;36542;51.700;8.846;2023-08-31T11:31:38;18.10;99.90
50586;DHT22;36542;51.700;8.846;2023-08-31T11:34:05;18.00;99.90
50586;DHT22;36542;51.700;8.846;2023-08-31T11:36:32;17.50;99.90
50586;DHT22;36542;51.700;8.846;2023-08-31T11:38:58;17.00;99.90
50586;DHT22;36542;51.700;8.846;2023-08-31T11:41:24;16.60;99.90
50586;DHT22;36542;51.700;8.846;2023-08-31T11:43:50;16.20;99.90
50586;DHT22;36542;51.700;8.846;2023-08-31T11:46:16;15.80;99.90
50586;DHT22;36542;51.700;8.846;2023-08-31T11:48:43;15.20;99.90
50586;DHT22;36542;51.700;8.846;2023-08-31T11:51:10;14.90;99.90
50586;DHT22;36542;51.700;8.846;2023-08-31T11:53:36;14.50;99.90
50586;DHT22;36542;51.700;8.846;2023-08-31T11:56:02;14.30;99.90
50586;DHT22;36542;51.700;8.846;2023-08-31T11:58:27;14.10;99.90
50586;DHT22;36542;51.700;8.846;2023-08-31T12:00:57;14.10;99.90
50586;DHT22;36542;51.700;8.846;2023-08-31T12:03:24;14.40;99.90
50586;DHT22;36542;51.700;8.846;2023-08-31T12:05:51;14.90;99.90
50586;DHT22;36542;51.700;8.846;2023-08-31T12:08:26;15.20;99.90
50586;DHT22;36542;51.700;8.846;2023-08-31T12:10:53;15.70;99.90
50586;DHT22;36542;51.700;8.846;2023-08-31T12:13:18;16.50;99.90
50586;DHT22;36542;51.700;8.846;2023-08-31T12:15:44;16.80;99.90
50586;DHT22;36542;51.700;8.846;2023-08-31T12:18:14;16.80;99.90
50586;DHT22;36542;51.700;8.846;2023-08-31T12:20:47;17.00;99.90
50586;DHT22;36542;51.700;8.846;2023-08-31T12:23:13;17.10;99.90
50586;DHT22;36542;51.700;8.846;2023-08-31T12:25:48;16.80;99.90
50586;DHT22;36542;51.700;8.846;2023-08-31T12:28:14;16.80;99.90
50586;DHT22;36542;51.700;8.846;2023-08-31T12:30:42;16.60;99.90
50586;DHT22;36542;51.700;8.846;2023-08-31T12:33:09;16.60;99.90
50586;DHT22;36542;51.700;8.846;2023-08-31T12:35:35;16.60;99.90
50586;DHT22;36542;51.700;8.846;2023-08-31T12:38:00;16.50;99.90
50586;DHT22;36542;51.700;8.846;2023-08-31T12:40:26;16.60;99.90
50586;DHT22;36542;51.700;8.846;2023-08-31T12:42:52;16.70;99.90
50586;DHT22;36542;51.700;8.846;2023-08-31T12:45:17;16.90;99.90
50586;DHT22;36542;51.700;8.846;2023-08-31T12:47:43;17.20;99.90
50586;DHT22;36542;51.700;8.846;2023-08-31T12:50:08;17.50;99.90
50586;DHT22;36542;51.700;8.846;2023-08-31T12:52:34;17.60;99.90
50586;DHT22;36542;51.700;8.846;2023-08-31T12:55:00;17.50;99.90
50586;DHT22;36542;51.700;8.846;2023-08-31T12:57:25;17.50;99.90
50586;DHT22;36542;51.700;8.846;2023-08-31T12:59:52;17.50;99.90
50586;DHT22;36542;51.700;8.846;2023-08-31T13:02:17;17.90;99.90
50586;DHT22;36542;51.700;8.846;2023-08-31T13:04:45;18.30;99.90
50586;DHT22;36542;51.700;8.846;2023-08-31T13:07:10;18.30;99.90
50586;DHT22;36542;51.700;8.846;2023-08-31T13:09:36;18.30;99.90
50586;DHT22;36542;51.700;8.846;2023-08-31T13:12:02;18.30;99.90
50586;DHT22;36542;51.700;8.846;2023-08-31T13:14:27;18.20;99.90
50586;DHT22;36542;51.700;8.846;2023-08-31T13:16:53;18.30;99.90
50586;DHT22;36542;51.700;8.846;2023-08-31T13:19:21;18.30;99.90
50586;DHT22;36542;51.700;8.846;2023-08-31T13:21:47;18.30;99.90
50586;DHT22;36542;51.700;8.846;2023-08-31T13:24:13;18.60;99.90
50586;DHT22;36542;51.700;8.846;2023-08-31T13:26:38;18.40;99.90
50586;DHT22;36542;51.700;8.846;2023-08-31T13:29:04;18.10;99.90
50586;DHT22;36542;51.700;8.846;2023-08-31T13:31:30;18.10;99.90
50586;DHT22;36542;51.700;8.846;2023-08-31T13:33:55;18.50;99.90
50586;DHT22;36542;51.700;8.846;2023-08-31T13:36:21;18.60;99.90
50586;DHT22;36542;51.700;8.846;2023-08-31T13:38:46;18.30;99.90
50586;DHT22;36542;51.700;8.846;2023-08-31T13:41:12;18.30;99.90
50586;DHT22;36542;51.700;8.846;2023-08-31T13:43:37;18.30;99.90
50586;DHT22;36542;51.700;8.846;2023-08-31T13:46:03;18.60;99.90
50586;DHT22;36542;51.700;8.846;2023-08-31T13:48:29;18.60;99.90
50586;DHT22;36542;51.700;8.846;2023-08-31T13:50:55;18.30;99.90
50586;DHT22;36542;51.700;8.846;2023-08-31T13:53:20;18.30;99.90
50586;DHT22;36542;51.700;8.846;2023-08-31T13:55:46;18.40;99.90
50586;DHT22;36542;51.700;8.846;2023-08-31T13:58:12;18.60;99.90
50586;DHT22;36542;51.700;8.846;2023-08-31T14:00:37;18.80;99.90
50586;DHT22;36542;51.700;8.846;2023-08-31T14:03:04;18.70;99.90
50586;DHT22;36542;51.700;8.846;2023-08-31T14:05:30;18.60;99.90
50586;DHT22;36542;51.700;8.846;2023-08-31T14:07:56;18.60;99.90
50586;DHT22;36542;51.700;8.846;2023-08-31T14:10:26;18.70;99.90
50586;DHT22;36542;51.700;8.846;2023-08-31T14:12:52;18.90;99.90
50586;DHT22;36542;51.700;8.846;2023-08-31T14:15:17;19.10;99.90
50586;DHT22;36542;51.700;8.846;2023-08-31T14:17:43;19.20;99.90
50586;DHT22;36542;51.700;8.846;2023-08-31T14:20:08;19.20;99.90
50586;DHT22;36542;51.700;8.846;2023-08-31T14:22:36;19.20;99.90
50586;DHT22;36542;51.700;8.846;2023-08-31T14:25:02;19.20;99.90
50586;DHT22;36542;51.700;8.846;2023-08-31T14:27:29;18.70;99.90
50586;DHT22;36542;51.700;8.846;2023-08-31T14:29:56;18.40;99.90
50586;DHT22;36542;51.700;8.846;2023-08-31T14:32:22;18.40;99.90
50586;DHT22;36542;51.700;8.846;2023-08-31T14:34:48;18.20;99.90
50586;DHT22;36542;51.700;8.846;2023-08-31T14:37:13;18.00;99.90
50586;DHT22;36542;51.700;8.846;2023-08-31T14:39:39;17.80;99.90
50586;DHT22;36542;51.700;8.846;2023-08-31T14:42:04;17.50;99.90
50586;DHT22;36542;51.700;8.846;2023-08-31T14:44:30;15.70;99.90
50586;DHT22;36542;51.700;8.846;2023-08-31T14:46:55;14.70;99.90
50586;DHT22;36542;51.700;8.846;2023-08-31T14:49:22;14.00;99.90
50586;DHT22;36542;51.700;8.846;2023-08-31T14:51:47;13.50;99.90
50586;DHT22;36542;51.700;8.846;2023-08-31T14:54:13;13.10;99.90
50586;DHT22;36542;51.700;8.846;2023-08-31T14:56:39;12.80;99.90
50586;DHT22;36542;51.700;8.846;2023-08-31T14:59:04;12.40;99.90
50586;DHT22;36542;51.700;8.846;2023-08-31T15:01:30;12.10;99.90
50586;DHT22;36542;51.700;8.846;2023-08-31T15:03:55;12.00;99.90
50586;DHT22;36542;51.700;8.846;2023-08-31T15:06:21;11.80;99.90
50586;DHT22;36542;51.700;8.846;2023-08-31T15:08:46;11.70;99.90
50586;DHT22;36542;51.700;8.846;2023-08-31T15:11:12;11.80;99.90
50586;DHT22;36542;51.700;8.846;2023-08-31T15:13:37;12.10;99.90
50586;DHT22;36542;51.700;8.846;2023-08-31T15:16:03;12.50;99.90
50586;DHT22;36542;51.700;8.846;2023-08-31T15:18:29;12.70;99.90
50586;DHT22;36542;51.700;8.846;2023-08-31T15:20:55;12.90;99.90
50586;DHT22;36542;51.700;8.846;2023-08-31T15:23:21;13.30;99.90
50586;DHT22;36542;51.700;8.846;2023-08-31T15:25:48;13.30;99.90
50586;DHT22;36542;51.700;8.846;2023-08-31T15:28:13;13.40;99.90
50586;DHT22;36542;51.700;8.846;2023-08-31T15:30:39;13.40;99.90
50586;DHT22;36542;51.700;8.846;2023-08-31T15:33:05;13.20;99.90
50586;DHT22;36542;51.700;8.846;2023-08-31T15:35:31;13.30;99.90
50586;DHT22;36542;51.700;8.846;2023-08-31T15:37:58;13.40;99.90
50586;DHT22;36542;51.700;8.846;2023-08-31T15:40:23;13.50;99.90
50586;DHT22;36542;51.700;8.846;2023-08-31T15:42:49;13.50;99.90